Glenwood Plt, Maine
Current Conditions -  °F | °C
As of 3:53 AM on Sunday 23 Nov 2014 (Local Time) from KHUL Reporting Station
Overcast Overcast  
Wind Chill: 24°   Ceiling: 2400
Heat Index: 31°   Visibility: 10mi
Dew Point: 20°   Wind: 7mph
Humidity: 64%   Direction: 200°SSW
Pressure: 29.86"   Gusts: NA
Location:  45.7877°N, 68.0764°W
Report Text: KHUL 230853Z AUTO 20006KT 10SM OVC024 M01/M07 A2986 RMK AO2 SLP117 T10061067 53015
Loading
Personal Weather Stations






























Interactive Weather Map New forecast layout! Learn more

10-Day Weather Forecast

Advertisements
Track Severe Weather on mobile